NEW MELONES RESERVOIR (NML)

Elevation: 1135' · STANISLAUS R basin · Operator: US Bureau of Reclamation

Provisional data, subject to change.
Query executed Thursday at 14:04:17   clock

Select a sensor type for a plot of data.
Note: Reservoir Flows are daily averages.

Earlier

Date RES ELE    STORAGE    RES CHG    TOC STO    ABV TOC    OUTFLOW    INFLOW    EVAP    FNF    RIV REL    PPT INC    SPILL    DIS PWR   
 FEET   AF   AF   AF   AF   CFS   CFS   CFS   CFS   CFS   INCHES   CFS   CFS  
12/31/2014 867.47 547389 1037 1970000 r -1422611 r 78 612 11 293 0 0.00 0 78
01/01/2015 867.69 548476 1087 1970000 -1421524 33 594 13 289 0 0.00 0 33
01/02/2015 867.89 549464 988 1970000 -1420536 153 659 8 356 0 0.00 0 153
01/03/2015 868.01 550058 594 1970000 -1419942 351 656 6 363 0 0.00 0 351
01/04/2015 868.25 551250 1192 1970000 -1418750 18 629 10 347 0 0.00 0 18
01/05/2015 868.21 551051 -199 1970000 -1418949 730 638 8 362 0 0.00 0 730
01/06/2015 868.42 552095 1044 1970000 -1417905 87 619 6 336 0 0.00 0 87
01/07/2015 868.66 553287 1192 1970000 -1416713 8 622 13 343 0 0.00 0 8
01/08/2015 868.89 554430 1143 1970000 -1415570 24 606 6 294 0 0.00 0 24
01/09/2015 868.85 554231 -199 1970000 -1415769 729 639 10 429 0 0.00 0 729
01/10/2015 868.80 553982 -249 1970000 -1416018 759 641 8 371 0 0.00 0 759
01/11/2015 869.04 555176 1194 1970000 -1414824 48 666 16 402 0 0.00 0 48
01/12/2015 869.14 555675 499 1970000 -1414325 330 584 2 310 0 0.00 0 330
01/13/2015 869.10 555476 -199 1970000 -1414524 516 424 8 170 0 0.00 0 516
01/14/2015 868.43 552144 -3332 1970000 -1417856 500 -1174 6 -1462 0 0.00 0 500
01/15/2015 868.54 552691 547 1970000 -1417309 293 569 0 297 0 0.00 0 293
01/16/2015 868.77 553833 1142 1970000 -1416167 20 612 16 318 0 0.00 0 20
01/17/2015 868.99 554926 1093 1970000 -1415074 24 585 10 310 0 0.00 0 24
01/18/2015 869.19 555925 999 1970000 -1414075 38 548 6 262 0 0.00 0 38
01/19/2015 869.17 555825 -100 1970000 -1414175 538 496 8 230 0 0.00 0 538
01/20/2015 869.18 555875 50 1970000 -1414125 564 592 3 305 0 0.00 0 564
01/21/2015 869.26 556275 400 1970000 -1413725 335 542 5 272 0 0.00 0 335
01/22/2015 869.42 557074 799 1970000 -1412926 144 560 13 295 0 0.00 0 144
01/23/2015 869.61 558023 949 1970000 -1411977 30 518 10 222 0 0.01 0 30
01/24/2015 869.84 559172 1149 1970000 -1410828 23 612 10 332 0 0.00 0 23
01/25/2015 870.00 559971 799 1970000 -1410029 87 503 13 222 0 0.00 0 87
01/26/2015 870.20 560976 1005 1970000 -1409024 71 586 8 328 0 0.00 0 71
01/27/2015 870.13 560624 -352 1970000 -1409376 697 526 6 264 0 0.00 0 697
01/28/2015 870.32 561578 954 1970000 -1408422 40 523 2 259 0 0.00 0 40
01/29/2015 -- -- -- -- -- -- -- -- -- -- -- -- --

Later | Latest

Warning! This data is preliminary and subject to revision.

Show NML Map | Plot NML Data | 1 Month NML Data | Real-Time NML Data | NML Info